Date,TemperatureHighF,TemperatureAvgF,TemperatureLowF,DewpointHighF,DewpointAvgF,DewpointLowF,HumidityHigh,HumidityAvg,HumidityLow,PressureMaxIn,PressureMinIn,WindSpeedMaxMPH,WindSpeedAvgMPH,GustSpeedMaxMPH,PrecipitationSumIn
2013-4-1,79,65,49,57,52,48,96,67,36,30.04,29.90,10,1,11,0.00
2013-4-2,72,66,52,65,58,43,89,78,66,29.99,29.86,20,5,26,0.01
2013-4-3,54,49,46,48,46,44,95,89,75,30.13,29.92,14,2,21,0.66
2013-4-4,52,47,43,44,42,41,95,85,71,30.18,30.09,13,2,15,0.03
2013-4-5,70,55,40,53,46,38,95,73,44,30.23,30.01,10,2,13,0.00
2013-4-6,75,64,54,61,54,48,86,71,53,30.01,29.80,29,9,30,0.00
2013-4-7,73,67,60,64,60,56,89,80,70,29.88,29.71,24,8,26,0.00
2013-4-8,76,71,65,67,63,59,84,77,72,29.73,29.62,25,10,28,0.00
2013-4-9,85,74,68,69,66,62,91,76,53,29.68,29.58,27,8,28,0.00
2013-4-10,73,49,41,69,45,36,94,88,69,29.96,29.65,20,5,24,0.30
2013-4-11,63,49,40,44,36,30,90,63,39,29.96,29.79,15,1,15,0.30
2013-4-12,78,59,42,54,46,40,94,66,33,29.98,29.83,11,1,12,0.00
2013-4-13,79,66,51,57,51,46,87,60,37,29.98,29.74,19,4,22,0.00
2013-4-14,81,69,57,67,60,50,85,72,59,29.75,29.51,22,7,23,0.00
2013-4-15,87,77,68,72,68,65,93,75,56,29.71,29.57,24,9,24,0.00
2013-4-16,87,78,71,72,68,66,86,73,56,29.85,29.71,20,8,26,0.00
2013-4-17,85,78,74,72,70,68,91,79,62,29.83,29.57,27,10,30,0.00
2013-4-18,76,56,45,72,48,35,94,76,53,30.12,29.51,37,8,41,1.15
2013-4-19,64,50,39,45,34,27,85,57,27,30.26,30.11,24,2,24,1.15
2013-4-20,72,59,45,47,40,35,77,52,30,30.19,29.99,21,5,21,0.00
2013-4-21,72,61,49,55,49,42,84,66,49,30.19,30.04,16,3,16,0.00
2013-4-22,78,67,54,63,56,48,80,68,57,30.08,29.81,20,6,23,0.00
2013-4-23,67,56,43,63,51,39,92,85,74,30.15,29.77,24,7,24,0.01
2013-4-24,62,50,40,42,38,34,91,65,41,30.29,30.15,18,3,19,0.07
2013-4-25,75,62,49,50,44,37,73,53,35,30.32,30.12,12,2,14,0.00
2013-4-26,78,68,60,69,58,47,84,72,56,30.14,29.93,21,4,23,0.00
2013-4-27,74,69,61,66,61,56,91,77,57,30.07,29.94,16,4,17,0.00
2013-4-28,82,67,52,70,60,50,96,81,63,30.01,29.82,11,1,12,0.00
2013-4-29,86,74,60,68,64,58,95,73,49,29.87,29.74,19,4,19,0.00
2013-4-30,83,72,60,69,63,58,93,76,53,29.80,29.70,15,4,15,0.00